createdAt,value
2019-04-05T00:02:17.123Z,20.57
2019-04-05T00:04:43.360Z,20.50
2019-04-05T00:07:09.507Z,22.40
2019-04-05T00:09:35.704Z,22.37
2019-04-05T00:12:02.097Z,22.07
2019-04-05T00:14:28.306Z,21.70
2019-04-05T00:16:54.752Z,20.07
2019-04-05T00:19:21.378Z,21.10
2019-04-05T00:21:47.616Z,21.13
2019-04-05T00:24:13.771Z,20.33
2019-04-05T00:26:39.972Z,21.27
2019-04-05T00:29:06.113Z,21.27
2019-04-05T00:31:32.489Z,20.90
2019-04-05T00:33:58.659Z,21.40
2019-04-05T00:36:24.856Z,21.63
2019-04-05T00:38:51.091Z,20.53
2019-04-05T00:41:18.148Z,21.23
2019-04-05T00:43:44.693Z,21.33
2019-04-05T00:46:10.948Z,20.43
2019-04-05T00:48:37.080Z,20.90
2019-04-05T00:51:03.383Z,20.57
2019-04-05T00:53:29.516Z,21.63
2019-04-05T00:55:55.758Z,21.60
2019-04-05T00:58:21.888Z,21.17
2019-04-05T01:00:48.082Z,21.67
2019-04-05T01:03:14.207Z,20.43
2019-04-05T01:05:40.413Z,21.10
2019-04-05T01:08:06.890Z,20.63
2019-04-05T01:10:33.232Z,20.63
2019-04-05T01:12:59.435Z,23.20
2019-04-05T01:15:25.594Z,22.20
2019-04-05T01:17:52.205Z,20.37
2019-04-05T01:20:19.361Z,22.87
2019-04-05T01:22:46.364Z,21.30
2019-04-05T01:25:12.471Z,22.33
2019-04-05T01:27:39.371Z,21.30
2019-04-05T01:30:12.700Z,21.30
2019-04-05T01:32:38.916Z,20.37
2019-04-05T01:35:05.360Z,20.80
2019-04-05T01:37:31.909Z,21.00
2019-04-05T01:39:58.723Z,20.90
2019-04-05T01:42:25.004Z,21.27
2019-04-05T01:44:52.011Z,22.27
2019-04-05T01:47:18.608Z,20.77
2019-04-05T01:49:44.740Z,20.87
2019-04-05T01:52:11.044Z,20.77
2019-04-05T01:54:37.422Z,21.33
2019-04-05T01:57:09.668Z,20.47
2019-04-05T01:59:35.999Z,21.17
2019-04-05T02:02:02.232Z,22.33
2019-04-05T02:04:28.491Z,20.37
2019-04-05T02:06:55.206Z,21.17
2019-04-05T02:09:21.450Z,21.10
2019-04-05T02:11:48.121Z,20.53
2019-04-05T02:14:14.258Z,20.37
2019-04-05T02:16:40.699Z,22.10
2019-04-05T02:19:07.158Z,20.00
2019-04-05T02:21:33.322Z,21.20
2019-04-05T02:23:59.535Z,20.57
2019-04-05T02:26:25.772Z,21.47
2019-04-05T02:28:51.984Z,20.17
2019-04-05T02:31:18.128Z,20.50
2019-04-05T02:33:44.325Z,20.17
2019-04-05T02:36:10.611Z,20.90
2019-04-05T02:38:37.090Z,19.50
2019-04-05T02:41:03.341Z,20.90
2019-04-05T02:43:32.253Z,21.60
2019-04-05T02:46:00.050Z,20.87
2019-04-05T02:48:29.968Z,20.10
2019-04-05T02:51:00.606Z,20.13
2019-04-05T02:53:27.116Z,21.67
2019-04-05T02:55:53.466Z,19.47
2019-04-05T02:58:20.225Z,20.40
2019-04-05T03:00:46.584Z,20.97
2019-04-05T03:03:13.494Z,19.30
2019-04-05T03:05:40.259Z,21.20
2019-04-05T03:08:06.847Z,19.33
2019-04-05T03:10:52.352Z,20.90
2019-04-05T03:13:21.657Z,18.63
2019-04-05T03:15:48.002Z,20.60
2019-04-05T03:18:14.360Z,19.47
2019-04-05T03:20:40.861Z,19.67
2019-04-05T03:23:07.286Z,19.27
2019-04-05T03:25:34.004Z,19.57
2019-04-05T03:28:00.843Z,20.37
2019-04-05T03:30:27.158Z,20.57
2019-04-05T03:32:53.528Z,19.13
2019-04-05T03:35:20.121Z,19.97
2019-04-05T03:37:46.567Z,20.73
2019-04-05T03:40:13.110Z,20.13
2019-04-05T03:42:39.237Z,20.30
2019-04-05T03:45:05.930Z,22.40
2019-04-05T03:47:32.095Z,20.93
2019-04-05T03:49:58.717Z,21.73
2019-04-05T03:52:24.917Z,20.60
2019-04-05T03:54:51.609Z,20.90
2019-04-05T03:57:18.140Z,21.37
2019-04-05T03:59:44.633Z,21.70
2019-04-05T04:02:10.861Z,22.10
2019-04-05T04:04:37.253Z,22.73
2019-04-05T04:07:03.483Z,21.90
2019-04-05T04:09:29.672Z,20.87
2019-04-05T04:11:56.212Z,21.47
2019-04-05T04:14:22.453Z,20.63
2019-04-05T04:16:48.860Z,22.13
2019-04-05T04:19:15.084Z,20.50
2019-04-05T04:22:09.536Z,21.20
2019-04-05T04:24:36.118Z,21.47
2019-04-05T04:27:02.587Z,19.83
2019-04-05T04:29:28.744Z,21.40
2019-04-05T04:31:56.313Z,20.10
2019-04-05T04:34:22.545Z,21.00
2019-04-05T04:36:49.042Z,21.60
2019-04-05T04:39:15.564Z,19.57
2019-04-05T04:41:42.380Z,20.43
2019-04-05T04:44:08.721Z,21.23
2019-04-05T04:46:35.321Z,20.47
2019-04-05T04:49:01.655Z,21.17
2019-04-05T04:51:28.859Z,20.40
2019-04-05T04:53:55.308Z,21.00
2019-04-05T04:56:21.617Z,20.07
2019-04-05T04:58:47.958Z,18.17
2019-04-05T05:01:14.263Z,20.53
2019-04-05T05:03:40.409Z,21.17
2019-04-05T05:06:07.344Z,20.57
2019-04-05T05:08:33.704Z,21.20
2019-04-05T05:11:00.207Z,20.83
2019-04-05T05:13:26.747Z,21.90
2019-04-05T05:15:53.186Z,20.87
2019-04-05T05:18:19.386Z,21.40
2019-04-05T05:20:45.525Z,21.47
2019-04-05T05:23:12.017Z,22.13
2019-04-05T05:25:38.262Z,21.93
2019-04-05T05:28:04.766Z,23.10
2019-04-05T05:30:31.101Z,22.93
2019-04-05T05:32:57.326Z,22.33
2019-04-05T05:35:23.442Z,22.23
2019-04-05T05:37:49.714Z,21.43
2019-04-05T05:40:16.527Z,22.73
2019-04-05T05:42:43.011Z,21.90
2019-04-05T05:45:09.866Z,22.10
2019-04-05T05:47:36.270Z,21.47
2019-04-05T05:50:06.204Z,21.93
2019-04-05T05:52:33.291Z,22.50
2019-04-05T05:54:59.425Z,22.67
2019-04-05T05:57:25.618Z,22.53
2019-04-05T05:59:51.785Z,23.03
2019-04-05T06:02:21.284Z,21.93
2019-04-05T06:04:47.526Z,22.37
2019-04-05T06:07:13.716Z,22.97
2019-04-05T06:09:39.863Z,22.67
2019-04-05T06:12:06.080Z,24.53
2019-04-05T06:14:32.238Z,24.13
2019-04-05T06:16:58.389Z,22.87
2019-04-05T06:19:25.065Z,22.73
2019-04-05T06:21:51.275Z,21.20
2019-04-05T06:24:17.485Z,23.23
2019-04-05T06:26:43.630Z,23.17
2019-04-05T06:29:09.817Z,22.73
2019-04-05T06:31:36.219Z,23.47
2019-04-05T06:34:02.520Z,24.13
2019-04-05T06:36:28.660Z,22.83
2019-04-05T06:38:54.947Z,22.23
2019-04-05T06:41:21.448Z,23.53
2019-04-05T06:43:47.652Z,23.57
2019-04-05T06:46:13.796Z,22.83
2019-04-05T06:48:40.000Z,23.57
2019-04-05T06:51:06.142Z,22.50
2019-04-05T06:53:32.853Z,23.50
2019-04-05T06:55:59.950Z,22.03
2019-04-05T06:58:28.887Z,23.00
2019-04-05T07:00:57.423Z,22.63
2019-04-05T07:03:23.044Z,23.43
2019-04-05T07:05:49.174Z,22.63
2019-04-05T07:08:18.157Z,23.23
2019-04-05T07:10:45.140Z,22.70
2019-04-05T07:13:11.611Z,22.33
2019-04-05T07:15:37.752Z,22.63
2019-04-05T07:18:03.894Z,21.87
2019-04-05T07:20:30.060Z,22.77
2019-04-05T07:22:56.195Z,22.23
2019-04-05T07:25:22.353Z,22.33
2019-04-05T07:27:48.833Z,22.93
2019-04-05T07:30:15.661Z,20.67
2019-04-05T07:32:41.918Z,21.80
2019-04-05T07:35:08.177Z,21.97
2019-04-05T07:37:34.341Z,21.00
2019-04-05T07:40:00.572Z,21.97
2019-04-05T07:42:26.704Z,21.73
2019-04-05T07:44:52.873Z,21.57
2019-04-05T07:47:19.007Z,22.10
2019-04-05T07:49:45.424Z,22.37
2019-04-05T07:52:13.058Z,22.17
2019-04-05T07:54:39.455Z,22.03
2019-04-05T07:57:05.592Z,21.03
2019-04-05T07:59:31.820Z,23.10
2019-04-05T08:01:58.008Z,22.37
2019-04-05T08:04:24.556Z,20.67
2019-04-05T08:06:52.409Z,22.93
2019-04-05T08:09:19.244Z,22.17
2019-04-05T08:11:47.894Z,22.83
2019-04-05T08:14:18.159Z,20.73
2019-04-05T08:16:44.657Z,21.67
2019-04-05T08:19:10.844Z,21.57
2019-04-05T08:21:37.014Z,22.27
2019-04-05T08:24:03.258Z,20.07
2019-04-05T08:26:29.812Z,19.97
2019-04-05T08:28:56.373Z,19.87
2019-04-05T08:31:22.742Z,19.63
2019-04-05T08:33:48.874Z,20.53
2019-04-05T08:36:15.137Z,19.90
2019-04-05T08:38:41.368Z,20.80
2019-04-05T08:41:07.584Z,20.87
2019-04-05T08:43:33.788Z,19.67
2019-04-05T08:46:02.423Z,19.63
2019-04-05T08:48:28.573Z,21.07
2019-04-05T08:50:54.723Z,19.63
2019-04-05T08:53:20.870Z,19.87
2019-04-05T08:55:47.040Z,19.37
2019-04-05T08:58:13.176Z,18.70
2019-04-05T09:00:39.335Z,18.07
2019-04-05T09:03:05.517Z,17.77
2019-04-05T09:05:33.459Z,17.63
2019-04-05T09:07:59.763Z,17.60
2019-04-05T09:10:26.233Z,17.87
2019-04-05T09:12:52.683Z,16.87
2019-04-05T09:15:18.850Z,18.37
2019-04-05T09:17:45.010Z,18.20
2019-04-05T09:20:11.356Z,16.63
2019-04-05T09:22:37.515Z,16.90
2019-04-05T09:25:05.473Z,17.10
2019-04-05T09:27:31.736Z,16.90
2019-04-05T09:29:58.154Z,17.27
2019-04-05T09:32:24.330Z,17.30
2019-04-05T09:34:50.772Z,17.40
2019-04-05T09:37:16.920Z,16.13
2019-04-05T09:39:43.214Z,15.77
2019-04-05T09:42:09.384Z,17.57
2019-04-05T09:44:35.523Z,15.87
2019-04-05T09:47:08.452Z,16.77
2019-04-05T09:49:36.843Z,17.03
2019-04-05T09:52:03.049Z,16.03
2019-04-05T09:54:29.220Z,16.27
2019-04-05T09:56:56.925Z,16.27
2019-04-05T09:59:23.254Z,15.97
2019-04-05T10:01:49.492Z,13.23
2019-04-05T10:04:15.651Z,14.87
2019-04-05T10:06:41.797Z,14.60
2019-04-05T10:09:07.962Z,13.70
2019-04-05T10:11:34.088Z,14.93
2019-04-05T10:14:00.502Z,14.67
2019-04-05T10:16:26.645Z,14.80
2019-04-05T10:18:52.807Z,15.17
2019-04-05T10:21:18.961Z,13.70
2019-04-05T10:23:45.120Z,13.80
2019-04-05T10:26:11.266Z,14.40
2019-04-05T10:28:37.441Z,13.40
2019-04-05T10:31:03.603Z,13.30
2019-04-05T10:33:29.767Z,13.30
2019-04-05T10:35:55.932Z,13.90
2019-04-05T10:38:22.084Z,12.63
2019-04-05T10:40:48.297Z,13.37
2019-04-05T10:43:14.718Z,13.97
2019-04-05T10:45:40.859Z,14.13
2019-04-05T10:48:07.019Z,15.00
2019-04-05T10:50:33.155Z,14.40
2019-04-05T10:52:59.316Z,13.37
2019-04-05T10:55:25.456Z,12.73
2019-04-05T10:57:51.643Z,14.30
2019-04-05T11:00:19.875Z,14.20
2019-04-05T11:02:46.033Z,14.70
2019-04-05T11:05:19.402Z,14.43
2019-04-05T11:07:45.607Z,14.90
2019-04-05T11:10:12.275Z,14.20
2019-04-05T11:12:38.427Z,13.67
2019-04-05T11:15:15.085Z,14.83
2019-04-05T11:17:42.599Z,14.70
2019-04-05T11:20:20.804Z,14.53
2019-04-05T11:22:37.768Z,13.60
2019-04-05T11:25:06.027Z,13.23
2019-04-05T11:27:32.167Z,13.67
2019-04-05T11:29:58.337Z,14.30
2019-04-05T11:32:24.491Z,13.93
2019-04-05T11:34:51.042Z,14.50
2019-04-05T11:37:19.074Z,14.57
2019-04-05T11:39:46.390Z,14.37
2019-04-05T11:42:15.092Z,13.77
2019-04-05T11:44:41.848Z,14.03
2019-04-05T11:47:08.095Z,15.00
2019-04-05T11:49:36.131Z,14.70
2019-04-05T11:52:02.262Z,14.33
2019-04-05T11:54:28.438Z,15.30
2019-04-05T11:56:54.583Z,15.50
2019-04-05T11:59:20.752Z,15.80
2019-04-05T12:01:51.471Z,15.27
2019-04-05T12:04:17.666Z,15.73
2019-04-05T12:06:43.825Z,15.37
2019-04-05T12:09:10.292Z,15.70
2019-04-05T12:11:36.745Z,15.50
2019-04-05T12:14:03.202Z,14.90
2019-04-05T12:16:29.735Z,14.67
2019-04-05T12:18:58.687Z,14.93
2019-04-05T12:21:23.938Z,15.07
2019-04-05T12:23:50.078Z,15.53
2019-04-05T12:26:16.244Z,14.40
2019-04-05T12:28:42.432Z,13.63
2019-04-05T12:31:08.711Z,14.07
2019-04-05T12:33:34.851Z,13.57
2019-04-05T12:36:01.295Z,13.40
2019-04-05T12:38:32.431Z,13.93
2019-04-05T12:41:01.387Z,13.20
2019-04-05T12:43:27.520Z,13.07
2019-04-05T12:45:53.689Z,13.03
2019-04-05T12:48:21.225Z,12.93
2019-04-05T12:51:00.336Z,13.00
2019-04-05T12:53:15.432Z,13.33
2019-04-05T12:55:41.590Z,11.70
2019-04-05T12:58:09.922Z,13.10
2019-04-05T13:00:38.736Z,12.50
2019-04-05T13:03:03.873Z,12.17
2019-04-05T13:05:30.044Z,11.50
2019-04-05T13:07:56.195Z,9.57
2019-04-05T13:10:25.111Z,10.20
2019-04-05T13:12:51.901Z,10.43
2019-04-05T13:15:18.241Z,10.60
2019-04-05T13:17:44.405Z,10.80
2019-04-05T13:20:11.052Z,12.50
2019-04-05T13:22:37.221Z,14.13
2019-04-05T13:25:06.220Z,15.23
2019-04-05T13:27:32.612Z,14.83
2019-04-05T13:29:58.805Z,15.43
2019-04-05T13:32:25.298Z,14.33
2019-04-05T13:34:51.447Z,14.13
2019-04-05T13:37:20.465Z,14.30
2019-04-05T13:39:45.729Z,13.50
2019-04-05T13:42:11.895Z,13.30
2019-04-05T13:44:38.064Z,12.47
2019-04-05T13:47:08.078Z,12.17
2019-04-05T13:49:32.582Z,11.77
2019-04-05T13:51:58.711Z,8.37
2019-04-05T13:54:24.880Z,11.33
2019-04-05T13:56:51.051Z,11.33
2019-04-05T13:59:17.219Z,13.30
2019-04-05T14:01:43.362Z,14.23
2019-04-05T14:04:09.519Z,13.50
2019-04-05T14:06:35.722Z,13.70
2019-04-05T14:09:02.185Z,13.17
2019-04-05T14:11:28.335Z,13.40
2019-04-05T14:13:54.493Z,13.67
2019-04-05T14:16:20.652Z,12.70
2019-04-05T14:18:49.812Z,12.67
2019-04-05T14:21:14.898Z,12.87
2019-04-05T14:23:41.075Z,12.70
2019-04-05T14:26:07.340Z,12.07
2019-04-05T14:28:34.131Z,10.50
2019-04-05T14:31:02.458Z,11.10
2019-04-05T14:33:28.996Z,9.50
2019-04-05T14:35:55.409Z,9.50
2019-04-05T14:38:23.140Z,10.17
2019-04-05T14:40:49.918Z,11.20
2019-04-05T14:43:16.186Z,12.37
2019-04-05T14:45:42.690Z,12.03
2019-04-05T14:48:08.839Z,11.77
2019-04-05T14:50:34.984Z,12.20
2019-04-05T14:53:01.999Z,11.57
2019-04-05T14:55:29.804Z,12.23
2019-04-05T14:57:56.720Z,11.97
2019-04-05T15:00:22.973Z,12.23
2019-04-05T15:02:49.104Z,11.43
2019-04-05T15:05:15.879Z,12.17
2019-04-05T15:07:42.014Z,11.50
2019-04-05T15:10:08.580Z,11.50
2019-04-05T15:12:34.734Z,12.67
2019-04-05T15:15:00.926Z,11.27
2019-04-05T15:17:27.059Z,12.23
2019-04-05T15:19:53.224Z,12.57
2019-04-05T15:22:19.391Z,12.37
2019-04-05T15:24:47.137Z,12.23
2019-04-05T15:27:13.585Z,12.43
2019-04-05T15:29:39.742Z,11.90
2019-04-05T15:32:06.231Z,12.20
2019-04-05T15:34:32.385Z,11.57
2019-04-05T15:36:59.356Z,11.37
2019-04-05T15:39:28.528Z,11.20
2019-04-05T15:41:55.402Z,11.47
2019-04-05T15:44:21.534Z,11.13
2019-04-05T15:46:47.708Z,11.07
2019-04-05T15:49:14.115Z,10.33
2019-04-05T15:51:40.356Z,10.47
2019-04-05T15:54:06.509Z,9.83
2019-04-05T15:56:34.102Z,9.70
2019-04-05T15:59:03.721Z,9.30
2019-04-05T16:01:28.576Z,10.43
2019-04-05T16:03:54.724Z,10.43
2019-04-05T16:06:20.885Z,10.70
2019-04-05T16:08:47.026Z,10.47
2019-04-05T16:11:13.487Z,10.73
2019-04-05T16:13:40.032Z,10.27
2019-04-05T16:16:06.191Z,10.27
2019-04-05T16:18:32.324Z,10.90
2019-04-05T16:20:58.460Z,10.10
2019-04-05T16:23:24.636Z,9.30
2019-04-05T16:25:50.820Z,9.83
2019-04-05T16:28:16.974Z,9.03
2019-04-05T16:30:43.124Z,9.37
2019-04-05T16:33:09.289Z,9.07
2019-04-05T16:35:35.441Z,10.23
2019-04-05T16:38:01.635Z,10.07
2019-04-05T16:40:31.225Z,9.80
2019-04-05T16:43:02.305Z,10.93
2019-04-05T16:45:24.655Z,10.83
2019-04-05T16:47:50.838Z,9.37
2019-04-05T16:50:17.179Z,10.30
2019-04-05T16:52:45.021Z,10.27
2019-04-05T16:55:11.689Z,10.90
2019-04-05T16:57:37.849Z,11.60
2019-04-05T17:00:07.944Z,9.67
2019-04-05T17:02:34.461Z,10.07
2019-04-05T17:05:00.891Z,9.97
2019-04-05T17:07:27.136Z,10.43
2019-04-05T17:09:53.277Z,10.57
2019-04-05T17:12:19.524Z,13.73
2019-04-05T17:14:45.682Z,15.27
2019-04-05T17:17:12.018Z,13.73
2019-04-05T17:19:38.187Z,16.27
2019-04-05T17:22:04.327Z,22.13
2019-04-05T17:24:30.585Z,28.60
2019-04-05T17:26:56.742Z,21.13
2019-04-05T17:29:22.895Z,29.07
2019-04-05T17:31:49.043Z,29.17
2019-04-05T17:34:15.783Z,22.03
2019-04-05T17:36:41.931Z,15.87
2019-04-05T17:39:08.374Z,14.20
2019-04-05T17:41:34.653Z,12.90
2019-04-05T17:44:00.791Z,11.90
2019-04-05T17:46:27.356Z,12.37
2019-04-05T17:48:53.597Z,11.53
2019-04-05T17:51:19.742Z,11.70
2019-04-05T17:53:45.923Z,10.87
2019-04-05T17:56:12.775Z,11.13
2019-04-05T17:58:38.954Z,11.37
2019-04-05T18:01:05.210Z,10.83
2019-04-05T18:03:31.366Z,11.50
2019-04-05T18:05:57.513Z,11.17
2019-04-05T18:08:23.679Z,12.20
2019-04-05T18:10:49.863Z,11.53
2019-04-05T18:13:16.010Z,12.33
2019-04-05T18:15:51.899Z,11.97
2019-04-05T18:18:10.347Z,11.73
2019-04-05T18:20:36.516Z,11.63
2019-04-05T18:23:02.766Z,12.60
2019-04-05T18:25:28.930Z,11.60
2019-04-05T18:27:55.456Z,11.77
2019-04-05T18:30:21.629Z,11.90
2019-04-05T18:32:48.437Z,12.00
2019-04-05T18:35:14.676Z,12.03
2019-04-05T18:37:40.808Z,11.77
2019-04-05T18:40:07.413Z,13.57
2019-04-05T18:42:33.617Z,13.63
2019-04-05T18:45:00.046Z,13.23
2019-04-05T18:47:26.178Z,14.47
2019-04-05T18:50:02.431Z,12.80
2019-04-05T18:52:20.396Z,12.97
2019-04-05T18:54:46.569Z,12.27
2019-04-05T18:57:14.142Z,12.47
2019-04-05T18:59:40.499Z,13.60
2019-04-05T19:02:06.676Z,12.80
2019-04-05T19:04:32.855Z,13.13
2019-04-05T19:06:58.996Z,13.80
2019-04-05T19:09:25.150Z,13.00
2019-04-05T19:11:51.322Z,12.43
2019-04-05T19:14:17.471Z,13.03
2019-04-05T19:16:43.739Z,13.27
2019-04-05T19:19:09.928Z,12.43
2019-04-05T19:21:36.194Z,13.97
2019-04-05T19:24:02.344Z,14.10
2019-04-05T19:26:28.532Z,13.97
2019-04-05T19:28:54.672Z,13.97
2019-04-05T19:48:38.951Z,14.03
2019-04-05T19:51:05.141Z,14.10
2019-04-05T19:53:31.303Z,14.03
2019-04-05T19:55:57.689Z,14.77
2019-04-05T19:58:23.827Z,13.97
2019-04-05T20:00:50.719Z,13.53
2019-04-05T20:03:16.864Z,14.00
2019-04-05T20:05:43.130Z,13.57
2019-04-05T20:08:09.444Z,14.30
2019-04-05T20:10:35.574Z,14.10
2019-04-05T20:13:01.988Z,14.53
2019-04-05T20:15:28.147Z,14.50
2019-04-05T20:17:54.291Z,15.13
2019-04-05T20:20:20.431Z,14.70
2019-04-05T20:22:46.617Z,15.10
2019-04-05T20:25:13.795Z,15.00
2019-04-05T20:27:39.957Z,15.23
2019-04-05T20:30:07.205Z,15.40
2019-04-05T20:32:33.392Z,14.43
2019-04-05T20:34:59.538Z,15.90
2019-04-05T20:37:26.037Z,16.03
2019-04-05T20:39:52.163Z,17.37
2019-04-05T20:42:32.318Z,15.63
2019-04-05T20:44:58.593Z,17.23
2019-04-05T20:47:24.763Z,16.83
2019-04-05T20:49:51.155Z,16.90
2019-04-05T20:52:17.390Z,16.17
2019-04-05T20:54:43.547Z,17.10
2019-04-05T20:57:09.708Z,16.40
2019-04-05T20:59:35.853Z,15.00
2019-04-05T21:02:01.995Z,17.00
2019-04-05T21:04:28.176Z,17.00
2019-04-05T21:06:54.325Z,17.13
2019-04-05T21:09:20.496Z,14.73
2019-04-05T21:11:46.710Z,16.10
2019-04-05T21:14:13.224Z,17.47
2019-04-05T21:16:39.372Z,16.40
2019-04-05T21:19:05.579Z,18.43
2019-04-05T21:21:31.727Z,17.60
2019-04-05T21:23:57.995Z,17.90
2019-04-05T21:26:24.127Z,16.77
2019-04-05T21:28:50.296Z,16.87
2019-04-05T21:31:16.426Z,17.70
2019-04-05T21:33:42.598Z,16.87
2019-04-05T21:36:08.759Z,18.13
2019-04-05T21:38:34.919Z,17.63
2019-04-05T21:41:01.060Z,16.83
2019-04-05T21:43:27.294Z,17.53
2019-04-05T21:45:53.459Z,16.97
2019-04-05T21:48:19.632Z,16.10
2019-04-05T21:50:46.090Z,16.23
2019-04-05T21:53:12.248Z,16.60
2019-04-05T21:55:38.422Z,17.13
2019-04-05T21:58:04.562Z,17.50
2019-04-05T22:00:34.056Z,17.03
2019-04-05T22:03:00.476Z,16.30
2019-04-05T22:05:26.632Z,16.90
2019-04-05T22:07:52.782Z,18.00
2019-04-05T22:10:18.950Z,18.03
2019-04-05T22:12:45.088Z,17.37
2019-04-05T22:15:11.270Z,17.37
2019-04-05T22:17:37.406Z,16.90
2019-04-05T22:20:04.285Z,18.00
2019-04-05T22:22:30.493Z,16.73
2019-04-05T22:24:59.603Z,17.27
2019-04-05T22:27:25.032Z,16.37
2019-04-05T22:29:51.264Z,15.63
2019-04-05T22:32:17.392Z,16.73
2019-04-05T22:34:43.572Z,16.83
2019-04-05T22:37:09.740Z,15.73
2019-04-05T22:39:35.904Z,16.37
2019-04-05T22:42:02.102Z,15.80
2019-04-05T22:44:37.748Z,16.20
2019-04-05T22:46:56.352Z,16.43
2019-04-05T22:49:22.495Z,15.80
2019-04-05T22:51:48.672Z,13.67
2019-04-05T22:54:14.893Z,14.03
2019-04-05T22:56:41.047Z,13.43
2019-04-05T22:59:07.191Z,13.47
2019-04-05T23:01:33.367Z,13.03
2019-04-05T23:03:59.506Z,12.70
2019-04-05T23:06:25.655Z,11.73
2019-04-05T23:08:52.238Z,11.67
2019-04-05T23:11:18.425Z,12.13
2019-04-05T23:13:44.904Z,11.17
2019-04-05T23:16:11.059Z,11.13
2019-04-05T23:18:37.218Z,11.83
2019-04-05T23:21:03.393Z,10.87
2019-04-05T23:23:29.543Z,10.93
2019-04-05T23:25:55.702Z,10.07
2019-04-05T23:28:21.845Z,11.37
2019-04-05T23:30:47.995Z,12.07
2019-04-05T23:33:14.140Z,10.37
2019-04-05T23:35:40.335Z,11.10
2019-04-05T23:38:06.484Z,11.03
2019-04-05T23:40:32.651Z,10.97
2019-04-05T23:42:58.872Z,10.80
2019-04-05T23:45:25.059Z,11.27
2019-04-05T23:47:51.189Z,10.87
2019-04-05T23:50:17.321Z,11.57
2019-04-05T23:52:43.516Z,11.93
2019-04-05T23:55:09.687Z,11.77
2019-04-05T23:57:35.807Z,11.53
